createdAt,value
2023-02-23T00:04:47.574Z,87.87
2023-02-23T00:11:10.563Z,88.14
2023-02-23T00:17:30.587Z,88.71
2023-02-23T00:23:53.566Z,88.84
2023-02-23T00:30:13.580Z,88.48
2023-02-23T00:36:39.299Z,88.44
2023-02-23T00:42:59.573Z,88.41
2023-02-23T00:49:22.575Z,88.59
2023-02-23T00:55:42.639Z,88.56
2023-02-23T01:02:05.650Z,88.82
2023-02-23T01:08:25.602Z,89.21
2023-02-23T01:14:48.608Z,89.58
2023-02-23T01:21:08.651Z,89.53
2023-02-23T01:27:31.600Z,89.54
2023-02-23T01:33:51.610Z,89.25
2023-02-23T01:40:14.584Z,89.77
2023-02-23T01:46:34.655Z,89.88
2023-02-23T01:52:57.588Z,89.88
2023-02-23T01:59:17.607Z,90.1
2023-02-23T02:05:40.576Z,89.99
2023-02-23T02:12:00.633Z,90.23
2023-02-23T02:18:23.805Z,90.29
2023-02-23T02:24:43.647Z,90.74
2023-02-23T02:31:06.637Z,90.92
2023-02-23T02:37:26.572Z,90.84
2023-02-23T02:43:49.566Z,90.93
2023-02-23T02:50:09.624Z,90.83
2023-02-23T02:56:32.583Z,90.74
2023-02-23T03:02:52.594Z,90.52
2023-02-23T03:09:15.598Z,90.48
2023-02-23T03:15:35.585Z,90.55
2023-02-23T03:21:58.578Z,90.55
2023-02-23T03:28:18.649Z,90.36
2023-02-23T03:34:41.591Z,90.61
2023-02-23T03:41:01.750Z,90.94
2023-02-23T03:47:24.643Z,90.82
2023-02-23T03:53:44.588Z,90.76
2023-02-23T04:00:07.567Z,90.6
2023-02-23T04:06:27.648Z,90.64
2023-02-23T04:12:50.590Z,90.51
2023-02-23T04:19:10.620Z,90.5
2023-02-23T04:25:33.646Z,90.46
2023-02-23T04:47:43.599Z,90.92
2023-02-23T04:54:06.592Z,91.37
2023-02-23T05:00:26.672Z,91.58
2023-02-23T05:06:49.671Z,91.54
2023-02-23T05:13:09.593Z,91.56
2023-02-23T05:19:32.590Z,91.53
2023-02-23T05:25:52.619Z,90.9
2023-02-23T05:32:15.735Z,90.81
2023-02-23T05:38:35.703Z,90.93
2023-02-23T05:44:58.758Z,90.91
2023-02-23T05:51:18.870Z,91.06
2023-02-23T05:57:41.572Z,91.36
2023-02-23T06:04:01.657Z,91.62
2023-02-23T06:10:24.599Z,91.71
2023-02-23T06:16:44.720Z,91.64
2023-02-23T06:23:07.751Z,91.79
2023-02-23T06:29:27.580Z,91.92
2023-02-23T06:35:50.584Z,92.09
2023-02-23T06:42:10.618Z,92.12
2023-02-23T06:48:33.601Z,92.05
2023-02-23T06:54:53.611Z,92.09
2023-02-23T07:01:16.928Z,92.11
2023-02-23T07:07:36.620Z,92.07
2023-02-23T07:13:59.615Z,92
2023-02-23T07:20:19.827Z,92.07
2023-02-23T07:26:42.611Z,91.75
2023-02-23T07:33:02.586Z,91.64
2023-02-23T07:39:25.672Z,91.69
2023-02-23T07:45:46.613Z,91.37
2023-02-23T07:52:08.595Z,91.51
2023-02-23T07:58:28.625Z,91.23
2023-02-23T08:04:51.582Z,91.34
2023-02-23T08:11:11.604Z,90.92
2023-02-23T08:17:34.664Z,90.91
2023-02-23T08:23:54.600Z,90.84
2023-02-23T08:30:17.595Z,90.74
2023-02-23T08:36:37.605Z,90.82
2023-02-23T08:43:00.615Z,90.96
2023-02-23T08:49:20.570Z,90.67
2023-02-23T08:55:43.631Z,90.58
2023-02-23T09:02:03.570Z,90.25
2023-02-23T09:08:26.572Z,90.13
2023-02-23T09:14:46.644Z,89.28
2023-02-23T09:21:09.587Z,89.12
2023-02-23T09:27:29.576Z,89.39
2023-02-23T09:33:52.610Z,89.04
2023-02-23T09:40:12.585Z,88.93
2023-02-23T10:03:02.614Z,88.86
2023-02-23T10:09:25.575Z,88.27
2023-02-23T10:15:45.687Z,88.35
2023-02-23T10:22:08.614Z,88.32
2023-02-23T10:28:28.593Z,88.25
2023-02-23T10:34:51.595Z,88.08
2023-02-23T10:41:13.751Z,88.03
2023-02-23T10:47:34.598Z,88.01
2023-02-23T10:53:54.568Z,87.77
2023-02-23T11:00:18.104Z,87.49
2023-02-23T11:06:37.585Z,86.5
2023-02-23T11:13:00.578Z,86.14
2023-02-23T11:19:20.632Z,85.73
2023-02-23T11:25:44.368Z,85.51
2023-02-23T11:32:07.404Z,86.09
2023-02-23T11:38:26.658Z,85.5
2023-02-23T11:44:46.565Z,85.96
2023-02-23T11:51:09.598Z,86.06
2023-02-23T11:57:29.602Z,86.15
2023-02-23T12:03:52.599Z,86.57
2023-02-23T12:10:12.592Z,85.75
2023-02-23T12:16:35.682Z,85.82
2023-02-23T12:22:55.636Z,85.87
2023-02-23T12:29:18.593Z,85.71
2023-02-23T12:35:38.624Z,85.38
2023-02-23T12:42:01.600Z,85.38
2023-02-23T12:48:21.565Z,85.83
2023-02-23T12:54:44.687Z,86.27
2023-02-23T13:01:04.606Z,86.19
2023-02-23T13:07:27.570Z,86.58
2023-02-23T13:13:47.651Z,85.86
2023-02-23T13:20:10.597Z,86.4
2023-02-23T13:26:30.610Z,85.13
2023-02-23T13:32:53.632Z,85.29
2023-02-23T13:39:18.908Z,83.71
2023-02-23T13:45:36.614Z,84.07
2023-02-23T13:51:56.620Z,84.49
2023-02-23T13:58:19.628Z,84.96
2023-02-23T14:04:39.578Z,85.68
2023-02-23T14:11:02.606Z,86.16
2023-02-23T14:17:22.598Z,86.09
2023-02-23T14:23:45.560Z,85.82
2023-02-23T14:30:05.620Z,86.04
2023-02-23T14:36:28.593Z,85.8
2023-02-23T14:42:48.616Z,85.22
2023-02-23T14:49:11.646Z,85.35
2023-02-23T14:55:31.589Z,85.43
2023-02-23T15:01:54.624Z,84.71
2023-02-23T15:17:26.618Z,83.98
2023-02-23T15:23:46.618Z,83.59
2023-02-23T15:30:09.585Z,84.02
2023-02-23T15:36:29.650Z,83.98
2023-02-23T15:42:52.578Z,83.4
2023-02-23T15:49:12.654Z,83.15
2023-02-23T15:55:35.630Z,82.82
2023-02-23T16:01:56.125Z,82.87
2023-02-23T16:08:18.604Z,83.21
2023-02-23T16:14:38.631Z,83.81
2023-02-23T16:21:01.576Z,83.17
2023-02-23T16:27:21.601Z,83.25
2023-02-23T16:33:44.604Z,83.74
2023-02-23T16:40:04.588Z,83.66
2023-02-23T16:46:27.611Z,83.74
2023-02-23T16:52:47.623Z,83.65
2023-02-23T16:59:10.598Z,83.95
2023-02-23T17:05:30.584Z,84.07
2023-02-23T17:11:53.683Z,84.52
2023-02-23T17:18:13.579Z,84.23
2023-02-23T17:24:36.589Z,84.15
2023-02-23T17:30:56.672Z,84
2023-02-23T17:37:19.614Z,84.15
2023-02-23T17:43:39.580Z,84.42
2023-02-23T17:50:02.617Z,84.68
2023-02-23T17:56:22.598Z,85.48
2023-02-23T18:02:45.630Z,85.79
2023-02-23T18:09:05.609Z,86
2023-02-23T18:15:28.593Z,86.09
2023-02-23T18:21:48.568Z,86.3
2023-02-23T18:28:11.612Z,86.28
2023-02-23T18:34:31.623Z,86.65
2023-02-23T18:40:54.624Z,86.34
2023-02-23T18:47:14.644Z,86.57
2023-02-23T18:53:37.600Z,87.04
2023-02-23T18:59:57.585Z,86.07
2023-02-23T19:06:20.646Z,86.41
2023-02-23T19:12:40.583Z,86.4
2023-02-23T19:19:03.600Z,86.28
2023-02-23T19:25:23.624Z,86.54
2023-02-23T19:31:46.811Z,86.9
2023-02-23T19:38:06.634Z,86.88
2023-02-23T19:44:29.625Z,87.57
2023-02-23T19:50:49.691Z,87.76
2023-02-23T19:57:12.576Z,87.71
2023-02-23T20:03:32.616Z,88.32
2023-02-23T20:09:55.591Z,88.56
2023-02-23T20:16:15.598Z,88.63
2023-02-23T20:22:38.614Z,88.91
2023-02-23T20:38:10.494Z,88.93
2023-02-23T20:44:30.584Z,88.73
2023-02-23T20:50:53.565Z,89.13
2023-02-23T20:57:13.623Z,88.84
2023-02-23T21:03:36.612Z,88.15
2023-02-23T21:09:56.593Z,88.17
2023-02-23T21:16:19.763Z,88.15
2023-02-23T21:22:39.608Z,87.77
2023-02-23T21:29:02.633Z,87.34
2023-02-23T21:35:22.600Z,87.64
2023-02-23T21:41:45.563Z,87.62
2023-02-23T21:48:05.600Z,87.53
2023-02-23T21:54:28.608Z,87.74
2023-02-23T22:00:49.099Z,87.01
2023-02-23T22:07:11.583Z,87.53
2023-02-23T22:13:31.621Z,87.51
2023-02-23T22:19:54.618Z,88
2023-02-23T22:26:14.596Z,87.39
2023-02-23T22:32:37.773Z,87.44
2023-02-23T22:38:57.596Z,87.57
2023-02-23T22:45:20.682Z,87.96
2023-02-23T22:51:40.620Z,87.04
2023-02-23T22:58:03.607Z,86.82
2023-02-23T23:21:00.581Z,86.93
2023-02-23T23:27:20.622Z,87.39
2023-02-23T23:33:43.561Z,87.41
2023-02-23T23:40:03.643Z,87.42
2023-02-23T23:46:26.612Z,88.22
2023-02-23T23:52:46.606Z,88.46
2023-02-23T23:59:09.586Z,88.52
